sensor_id;sensor_type;location;lat;lon;timestamp;P1;durP1;ratioP1;P2;durP2;ratioP2
56136;SDS011;42008;52.934;5.884;2022-10-04T00:02:59;26.20;;;9.73;;
56136;SDS011;42008;52.934;5.884;2022-10-04T00:05:36;30.03;;;8.80;;
56136;SDS011;42008;52.934;5.884;2022-10-04T00:08:21;30.43;;;9.90;;
56136;SDS011;42008;52.934;5.884;2022-10-04T00:11:01;27.23;;;10.07;;
56136;SDS011;42008;52.934;5.884;2022-10-04T00:13:29;21.93;;;10.00;;
56136;SDS011;42008;52.934;5.884;2022-10-04T00:15:55;25.40;;;10.20;;
56136;SDS011;42008;52.934;5.884;2022-10-04T00:18:37;24.47;;;10.50;;
56136;SDS011;42008;52.934;5.884;2022-10-04T00:21:06;26.03;;;11.17;;
56136;SDS011;42008;52.934;5.884;2022-10-04T00:26:02;22.83;;;10.27;;
56136;SDS011;42008;52.934;5.884;2022-10-04T00:28:51;26.40;;;11.40;;
56136;SDS011;42008;52.934;5.884;2022-10-04T00:31:17;23.43;;;10.57;;
56136;SDS011;42008;52.934;5.884;2022-10-04T00:37:15;26.77;;;11.13;;
56136;SDS011;42008;52.934;5.884;2022-10-04T00:42:05;25.80;;;10.13;;
56136;SDS011;42008;52.934;5.884;2022-10-04T00:44:50;23.40;;;10.93;;
56136;SDS011;42008;52.934;5.884;2022-10-04T00:47:21;26.67;;;10.67;;
56136;SDS011;42008;52.934;5.884;2022-10-04T00:49:57;25.33;;;10.73;;
56136;SDS011;42008;52.934;5.884;2022-10-04T00:52:31;25.63;;;11.23;;
56136;SDS011;42008;52.934;5.884;2022-10-04T00:55:05;20.10;;;10.30;;
56136;SDS011;42008;52.934;5.884;2022-10-04T00:57:38;22.07;;;10.00;;
56136;SDS011;42008;52.934;5.884;2022-10-04T01:00:15;24.83;;;10.40;;
56136;SDS011;42008;52.934;5.884;2022-10-04T01:05:30;25.00;;;10.70;;
56136;SDS011;42008;52.934;5.884;2022-10-04T01:08:10;29.33;;;10.37;;
56136;SDS011;42008;52.934;5.884;2022-10-04T01:11:12;23.27;;;10.37;;
56136;SDS011;42008;52.934;5.884;2022-10-04T01:13:46;24.53;;;9.50;;
56136;SDS011;42008;52.934;5.884;2022-10-04T01:16:24;30.70;;;10.60;;
56136;SDS011;42008;52.934;5.884;2022-10-04T01:19:18;25.03;;;11.07;;
56136;SDS011;42008;52.934;5.884;2022-10-04T01:21:45;24.83;;;9.73;;
56136;SDS011;42008;52.934;5.884;2022-10-04T01:24:20;19.37;;;9.33;;
56136;SDS011;42008;52.934;5.884;2022-10-04T01:26:46;21.30;;;9.50;;
56136;SDS011;42008;52.934;5.884;2022-10-04T01:29:13;22.83;;;10.03;;
56136;SDS011;42008;52.934;5.884;2022-10-04T01:31:56;29.37;;;10.60;;
56136;SDS011;42008;52.934;5.884;2022-10-04T01:34:24;30.50;;;10.23;;
56136;SDS011;42008;52.934;5.884;2022-10-04T01:36:52;20.47;;;9.80;;
56136;SDS011;42008;52.934;5.884;2022-10-04T01:39:20;22.43;;;10.27;;
56136;SDS011;42008;52.934;5.884;2022-10-04T01:44:38;35.80;;;11.67;;
56136;SDS011;42008;52.934;5.884;2022-10-04T01:47:34;33.37;;;11.30;;
56136;SDS011;42008;52.934;5.884;2022-10-04T01:50:25;27.43;;;11.17;;
56136;SDS011;42008;52.934;5.884;2022-10-04T01:53:00;23.40;;;11.17;;
56136;SDS011;42008;52.934;5.884;2022-10-04T01:56:04;25.80;;;10.10;;
56136;SDS011;42008;52.934;5.884;2022-10-04T01:58:40;24.80;;;11.50;;
56136;SDS011;42008;52.934;5.884;2022-10-04T02:01:16;30.77;;;12.93;;
56136;SDS011;42008;52.934;5.884;2022-10-04T02:03:54;26.90;;;12.52;;
56136;SDS011;42008;52.934;5.884;2022-10-04T02:06:20;29.50;;;12.80;;
56136;SDS011;42008;52.934;5.884;2022-10-04T02:08:48;28.73;;;12.57;;
56136;SDS011;42008;52.934;5.884;2022-10-04T02:11:16;34.70;;;13.57;;
56136;SDS011;42008;52.934;5.884;2022-10-04T02:13:44;30.77;;;13.60;;
56136;SDS011;42008;52.934;5.884;2022-10-04T02:16:13;27.03;;;13.00;;
56136;SDS011;42008;52.934;5.884;2022-10-04T02:18:41;26.97;;;13.40;;
56136;SDS011;42008;52.934;5.884;2022-10-04T02:21:08;33.60;;;14.77;;
56136;SDS011;42008;52.934;5.884;2022-10-04T02:23:35;31.30;;;14.93;;
56136;SDS011;42008;52.934;5.884;2022-10-04T02:26:06;36.90;;;15.47;;
56136;SDS011;42008;52.934;5.884;2022-10-04T02:28:33;33.30;;;15.33;;
56136;SDS011;42008;52.934;5.884;2022-10-04T02:31:00;40.10;;;16.57;;
56136;SDS011;42008;52.934;5.884;2022-10-04T02:33:45;34.20;;;16.67;;
56136;SDS011;42008;52.934;5.884;2022-10-04T02:36:14;32.67;;;16.30;;
56136;SDS011;42008;52.934;5.884;2022-10-04T02:38:43;32.57;;;16.17;;
56136;SDS011;42008;52.934;5.884;2022-10-04T02:41:24;41.27;;;17.47;;
56136;SDS011;42008;52.934;5.884;2022-10-04T02:44:02;32.37;;;17.67;;
56136;SDS011;42008;52.934;5.884;2022-10-04T02:49:27;37.83;;;18.43;;
56136;SDS011;42008;52.934;5.884;2022-10-04T02:57:27;36.07;;;19.03;;
56136;SDS011;42008;52.934;5.884;2022-10-04T03:02:37;36.77;;;19.60;;
56136;SDS011;42008;52.934;5.884;2022-10-04T03:05:07;50.20;;;20.03;;
56136;SDS011;42008;52.934;5.884;2022-10-04T03:07:36;36.17;;;19.30;;
56136;SDS011;42008;52.934;5.884;2022-10-04T03:10:06;33.10;;;19.67;;
56136;SDS011;42008;52.934;5.884;2022-10-04T03:12:36;36.20;;;20.03;;
56136;SDS011;42008;52.934;5.884;2022-10-04T03:15:07;35.90;;;19.27;;
56136;SDS011;42008;52.934;5.884;2022-10-04T03:17:34;31.37;;;18.40;;
56136;SDS011;42008;52.934;5.884;2022-10-04T03:20:02;34.43;;;19.37;;
56136;SDS011;42008;52.934;5.884;2022-10-04T03:22:29;42.03;;;19.13;;
56136;SDS011;42008;52.934;5.884;2022-10-04T03:24:55;37.50;;;19.77;;
56136;SDS011;42008;52.934;5.884;2022-10-04T03:27:27;43.53;;;20.43;;
56136;SDS011;42008;52.934;5.884;2022-10-04T03:29:55;33.87;;;19.20;;
56136;SDS011;42008;52.934;5.884;2022-10-04T03:32:23;34.73;;;20.47;;
56136;SDS011;42008;52.934;5.884;2022-10-04T03:34:59;33.77;;;19.33;;
56136;SDS011;42008;52.934;5.884;2022-10-04T03:37:30;44.07;;;20.73;;
56136;SDS011;42008;52.934;5.884;2022-10-04T03:40:00;37.93;;;21.17;;
56136;SDS011;42008;52.934;5.884;2022-10-04T03:42:31;38.40;;;21.90;;
56136;SDS011;42008;52.934;5.884;2022-10-04T03:45:05;42.80;;;23.03;;
56136;SDS011;42008;52.934;5.884;2022-10-04T03:47:36;45.13;;;22.33;;
56136;SDS011;42008;52.934;5.884;2022-10-04T03:50:12;42.90;;;23.40;;
56136;SDS011;42008;52.934;5.884;2022-10-04T03:52:43;38.63;;;22.10;;
56136;SDS011;42008;52.934;5.884;2022-10-04T03:55:14;37.83;;;21.13;;
56136;SDS011;42008;52.934;5.884;2022-10-04T03:57:41;48.00;;;22.37;;
56136;SDS011;42008;52.934;5.884;2022-10-04T04:00:07;42.83;;;23.03;;
56136;SDS011;42008;52.934;5.884;2022-10-04T04:02:41;40.80;;;22.93;;
56136;SDS011;42008;52.934;5.884;2022-10-04T04:07:48;38.63;;;23.10;;
56136;SDS011;42008;52.934;5.884;2022-10-04T04:10:25;35.63;;;22.23;;
56136;SDS011;42008;52.934;5.884;2022-10-04T04:12:55;44.00;;;24.17;;
56136;SDS011;42008;52.934;5.884;2022-10-04T04:15:29;43.55;;;24.20;;
56136;SDS011;42008;52.934;5.884;2022-10-04T04:18:01;43.43;;;24.47;;
56136;SDS011;42008;52.934;5.884;2022-10-04T04:20:33;43.70;;;24.57;;
56136;SDS011;42008;52.934;5.884;2022-10-04T04:23:02;43.70;;;25.00;;
56136;SDS011;42008;52.934;5.884;2022-10-04T04:25:29;41.97;;;24.77;;
56136;SDS011;42008;52.934;5.884;2022-10-04T04:28:00;43.87;;;25.23;;
56136;SDS011;42008;52.934;5.884;2022-10-04T04:30:36;49.73;;;25.90;;
56136;SDS011;42008;52.934;5.884;2022-10-04T04:33:06;46.30;;;26.57;;
56136;SDS011;42008;52.934;5.884;2022-10-04T04:35:36;48.00;;;26.67;;
56136;SDS011;42008;52.934;5.884;2022-10-04T04:38:03;49.20;;;27.47;;
56136;SDS011;42008;52.934;5.884;2022-10-04T04:40:30;51.60;;;27.70;;
56136;SDS011;42008;52.934;5.884;2022-10-04T04:42:57;44.30;;;28.00;;
56136;SDS011;42008;52.934;5.884;2022-10-04T04:45:26;48.33;;;29.47;;
56136;SDS011;42008;52.934;5.884;2022-10-04T04:47:54;54.30;;;28.77;;
56136;SDS011;42008;52.934;5.884;2022-10-04T04:50:22;48.87;;;27.53;;
56136;SDS011;42008;52.934;5.884;2022-10-04T04:52:56;50.07;;;27.57;;
56136;SDS011;42008;52.934;5.884;2022-10-04T04:55:27;47.83;;;29.20;;
56136;SDS011;42008;52.934;5.884;2022-10-04T04:57:56;48.03;;;28.77;;
56136;SDS011;42008;52.934;5.884;2022-10-04T05:00:30;55.93;;;27.83;;
56136;SDS011;42008;52.934;5.884;2022-10-04T05:03:02;44.43;;;26.87;;
56136;SDS011;42008;52.934;5.884;2022-10-04T05:05:30;42.58;;;26.70;;
56136;SDS011;42008;52.934;5.884;2022-10-04T05:08:10;52.53;;;28.93;;
56136;SDS011;42008;52.934;5.884;2022-10-04T05:13:22;51.30;;;28.73;;
56136;SDS011;42008;52.934;5.884;2022-10-04T05:15:53;50.67;;;27.73;;
56136;SDS011;42008;52.934;5.884;2022-10-04T05:18:31;47.83;;;28.10;;
56136;SDS011;42008;52.934;5.884;2022-10-04T05:21:02;49.23;;;27.37;;
56136;SDS011;42008;52.934;5.884;2022-10-04T05:23:31;46.90;;;28.10;;
56136;SDS011;42008;52.934;5.884;2022-10-04T05:25:58;50.67;;;29.27;;
56136;SDS011;42008;52.934;5.884;2022-10-04T05:28:26;55.13;;;28.93;;
56136;SDS011;42008;52.934;5.884;2022-10-04T05:31:01;45.80;;;27.40;;
56136;SDS011;42008;52.934;5.884;2022-10-04T05:33:46;45.17;;;28.10;;
56136;SDS011;42008;52.934;5.884;2022-10-04T05:36:26;48.67;;;27.47;;
56136;SDS011;42008;52.934;5.884;2022-10-04T05:42:04;45.73;;;25.93;;
56136;SDS011;42008;52.934;5.884;2022-10-04T05:44:52;47.60;;;27.73;;
56136;SDS011;42008;52.934;5.884;2022-10-04T05:47:19;42.60;;;28.57;;
56136;SDS011;42008;52.934;5.884;2022-10-04T05:49:55;52.57;;;29.73;;
56136;SDS011;42008;52.934;5.884;2022-10-04T06:06:32;52.33;;;30.03;;
56136;SDS011;42008;52.934;5.884;2022-10-04T06:12:13;49.22;;;29.67;;
56136;SDS011;42008;52.934;5.884;2022-10-04T06:15:10;48.30;;;29.27;;
56136;SDS011;42008;52.934;5.884;2022-10-04T06:20:31;47.70;;;28.33;;
56136;SDS011;42008;52.934;5.884;2022-10-04T06:23:16;51.67;;;29.97;;
56136;SDS011;42008;52.934;5.884;2022-10-04T06:28:15;48.57;;;29.20;;
56136;SDS011;42008;52.934;5.884;2022-10-04T06:33:50;46.77;;;30.50;;
56136;SDS011;42008;52.934;5.884;2022-10-04T06:36:39;42.17;;;28.67;;
56136;SDS011;42008;52.934;5.884;2022-10-04T07:13:40;42.23;;;25.50;;
56136;SDS011;42008;52.934;5.884;2022-10-04T07:15:58;40.00;;;25.10;;
56136;SDS011;42008;52.934;5.884;2022-10-04T07:18:31;43.53;;;24.50;;
56136;SDS011;42008;52.934;5.884;2022-10-04T07:23:34;37.47;;;23.23;;
56136;SDS011;42008;52.934;5.884;2022-10-04T07:26:13;29.77;;;22.77;;
56136;SDS011;42008;52.934;5.884;2022-10-04T07:28:54;36.53;;;22.27;;
56136;SDS011;42008;52.934;5.884;2022-10-04T07:31:43;35.10;;;22.20;;
56136;SDS011;42008;52.934;5.884;2022-10-04T07:34:21;36.03;;;24.03;;
56136;SDS011;42008;52.934;5.884;2022-10-04T07:36:51;36.13;;;23.00;;
56136;SDS011;42008;52.934;5.884;2022-10-04T07:39:24;33.67;;;22.47;;
56136;SDS011;42008;52.934;5.884;2022-10-04T07:42:08;32.77;;;20.43;;
56136;SDS011;42008;52.934;5.884;2022-10-04T07:45:10;33.77;;;20.97;;
56136;SDS011;42008;52.934;5.884;2022-10-04T07:47:41;30.33;;;19.70;;
56136;SDS011;42008;52.934;5.884;2022-10-04T07:50:27;35.53;;;20.70;;
56136;SDS011;42008;52.934;5.884;2022-10-04T07:53:04;26.00;;;20.13;;
56136;SDS011;42008;52.934;5.884;2022-10-04T08:03:58;26.90;;;18.43;;
56136;SDS011;42008;52.934;5.884;2022-10-04T08:06:59;23.70;;;16.20;;
56136;SDS011;42008;52.934;5.884;2022-10-04T08:23:23;29.03;;;16.37;;
56136;SDS011;42008;52.934;5.884;2022-10-04T08:46:07;29.90;;;18.67;;
56136;SDS011;42008;52.934;5.884;2022-10-04T08:57:04;23.73;;;14.63;;
56136;SDS011;42008;52.934;5.884;2022-10-04T09:16:44;23.17;;;14.30;;
56136;SDS011;42008;52.934;5.884;2022-10-04T09:24:18;24.40;;;14.70;;
56136;SDS011;42008;52.934;5.884;2022-10-04T09:30:01;20.13;;;13.40;;
56136;SDS011;42008;52.934;5.884;2022-10-04T09:32:42;25.23;;;14.20;;
56136;SDS011;42008;52.934;5.884;2022-10-04T09:35:20;19.40;;;13.97;;
56136;SDS011;42008;52.934;5.884;2022-10-04T09:39:02;21.97;;;14.63;;
56136;SDS011;42008;52.934;5.884;2022-10-04T09:46:50;24.70;;;15.30;;
56136;SDS011;42008;52.934;5.884;2022-10-04T09:52:35;26.70;;;16.37;;
56136;SDS011;42008;52.934;5.884;2022-10-04T10:03:28;22.47;;;14.47;;
56136;SDS011;42008;52.934;5.884;2022-10-04T10:15:23;23.77;;;13.55;;
56136;SDS011;42008;52.934;5.884;2022-10-04T10:18:45;20.80;;;12.97;;
56136;SDS011;42008;52.934;5.884;2022-10-04T10:21:09;21.53;;;13.30;;
56136;SDS011;42008;52.934;5.884;2022-10-04T10:29:26;21.15;;;12.70;;
56136;SDS011;42008;52.934;5.884;2022-10-04T10:32:16;18.33;;;12.67;;
56136;SDS011;42008;52.934;5.884;2022-10-04T10:40:27;21.97;;;12.93;;
56136;SDS011;42008;52.934;5.884;2022-10-04T10:43:15;24.00;;;12.20;;
56136;SDS011;42008;52.934;5.884;2022-10-04T10:49:02;18.87;;;11.07;;
56136;SDS011;42008;52.934;5.884;2022-10-04T10:54:36;19.07;;;9.57;;
56136;SDS011;42008;52.934;5.884;2022-10-04T11:11:14;18.10;;;8.80;;
56136;SDS011;42008;52.934;5.884;2022-10-04T11:17:17;12.47;;;7.27;;
56136;SDS011;42008;52.934;5.884;2022-10-04T11:25:55;14.73;;;7.37;;
56136;SDS011;42008;52.934;5.884;2022-10-04T11:31:42;14.00;;;7.93;;
56136;SDS011;42008;52.934;5.884;2022-10-04T11:45:51;13.30;;;7.43;;
56136;SDS011;42008;52.934;5.884;2022-10-04T11:51:32;11.87;;;7.00;;
56136;SDS011;42008;52.934;5.884;2022-10-04T11:57:42;15.00;;;8.17;;
56136;SDS011;42008;52.934;5.884;2022-10-04T12:00:13;17.27;;;7.70;;
56136;SDS011;42008;52.934;5.884;2022-10-04T12:08:31;12.33;;;6.40;;
56136;SDS011;42008;52.934;5.884;2022-10-04T12:22:07;11.70;;;7.33;;
56136;SDS011;42008;52.934;5.884;2022-10-04T12:24:46;13.43;;;6.00;;
56136;SDS011;42008;52.934;5.884;2022-10-04T12:27:39;14.43;;;6.47;;
56136;SDS011;42008;52.934;5.884;2022-10-04T12:33:17;9.53;;;5.87;;
56136;SDS011;42008;52.934;5.884;2022-10-04T12:47:38;7.63;;;5.10;;
56136;SDS011;42008;52.934;5.884;2022-10-04T12:58:31;12.47;;;6.23;;
56136;SDS011;42008;52.934;5.884;2022-10-04T13:04:08;14.43;;;6.20;;
56136;SDS011;42008;52.934;5.884;2022-10-04T13:09:30;11.57;;;5.93;;
56136;SDS011;42008;52.934;5.884;2022-10-04T13:12:25;11.02;;;5.80;;
56136;SDS011;42008;52.934;5.884;2022-10-04T13:15:25;9.55;;;5.78;;
56136;SDS011;42008;52.934;5.884;2022-10-04T13:21:03;10.40;;;5.35;;
56136;SDS011;42008;52.934;5.884;2022-10-04T13:26:21;11.32;;;5.10;;
56136;SDS011;42008;52.934;5.884;2022-10-04T13:32:18;8.57;;;4.95;;
56136;SDS011;42008;52.934;5.884;2022-10-04T13:37:24;9.70;;;4.55;;
56136;SDS011;42008;52.934;5.884;2022-10-04T13:40:11;7.85;;;4.25;;
56136;SDS011;42008;52.934;5.884;2022-10-04T13:45:58;9.63;;;3.80;;
56136;SDS011;42008;52.934;5.884;2022-10-04T13:54:11;10.32;;;4.07;;
56136;SDS011;42008;52.934;5.884;2022-10-04T14:00:18;8.55;;;4.85;;
56136;SDS011;42008;52.934;5.884;2022-10-04T14:02:47;9.73;;;5.30;;
56136;SDS011;42008;52.934;5.884;2022-10-04T14:05:47;11.77;;;4.97;;
56136;SDS011;42008;52.934;5.884;2022-10-04T14:08:48;9.00;;;5.32;;
56136;SDS011;42008;52.934;5.884;2022-10-04T14:12:06;11.32;;;5.88;;
56136;SDS011;42008;52.934;5.884;2022-10-04T14:23:18;10.98;;;5.80;;
56136;SDS011;42008;52.934;5.884;2022-10-04T14:31:49;9.18;;;4.32;;
56136;SDS011;42008;52.934;5.884;2022-10-04T14:43:19;7.65;;;4.03;;
56136;SDS011;42008;52.934;5.884;2022-10-04T15:07:53;8.07;;;3.25;;
56136;SDS011;42008;52.934;5.884;2022-10-04T15:11:05;10.45;;;4.35;;
56136;SDS011;42008;52.934;5.884;2022-10-04T15:16:00;14.30;;;4.80;;
56136;SDS011;42008;52.934;5.884;2022-10-04T15:18:45;10.90;;;3.88;;
56136;SDS011;42008;52.934;5.884;2022-10-04T15:24:22;9.20;;;4.25;;
56136;SDS011;42008;52.934;5.884;2022-10-04T15:26:58;11.48;;;4.63;;
56136;SDS011;42008;52.934;5.884;2022-10-04T15:32:35;9.05;;;4.43;;
56136;SDS011;42008;52.934;5.884;2022-10-04T15:35:23;9.40;;;5.20;;
56136;SDS011;42008;52.934;5.884;2022-10-04T15:38:17;11.35;;;4.50;;
56136;SDS011;42008;52.934;5.884;2022-10-04T15:41:02;11.35;;;5.28;;
56136;SDS011;42008;52.934;5.884;2022-10-04T15:49:24;11.88;;;5.25;;
56136;SDS011;42008;52.934;5.884;2022-10-04T15:52:07;10.80;;;5.30;;
56136;SDS011;42008;52.934;5.884;2022-10-04T15:54:45;10.27;;;5.90;;
56136;SDS011;42008;52.934;5.884;2022-10-04T16:00:03;11.47;;;5.43;;
56136;SDS011;42008;52.934;5.884;2022-10-04T16:21:40;10.27;;;5.83;;
56136;SDS011;42008;52.934;5.884;2022-10-04T16:31:56;13.70;;;5.83;;
56136;SDS011;42008;52.934;5.884;2022-10-04T16:34:38;22.93;;;7.40;;
56136;SDS011;42008;52.934;5.884;2022-10-04T16:42:59;15.53;;;9.17;;
56136;SDS011;42008;52.934;5.884;2022-10-04T16:45:47;16.93;;;8.13;;
56136;SDS011;42008;52.934;5.884;2022-10-04T16:56:09;14.47;;;7.20;;
56136;SDS011;42008;52.934;5.884;2022-10-04T16:58:51;16.00;;;7.50;;
56136;SDS011;42008;52.934;5.884;2022-10-04T17:01:40;13.10;;;6.37;;
56136;SDS011;42008;52.934;5.884;2022-10-04T17:10:01;14.30;;;6.47;;
56136;SDS011;42008;52.934;5.884;2022-10-04T17:15:30;12.73;;;6.87;;
56136;SDS011;42008;52.934;5.884;2022-10-04T17:18:11;15.93;;;6.90;;
56136;SDS011;42008;52.934;5.884;2022-10-04T17:20:54;13.67;;;6.70;;
56136;SDS011;42008;52.934;5.884;2022-10-04T17:23:37;10.80;;;6.40;;
56136;SDS011;42008;52.934;5.884;2022-10-04T17:32:30;12.43;;;6.80;;
56136;SDS011;42008;52.934;5.884;2022-10-04T17:35:11;15.07;;;7.40;;
56136;SDS011;42008;52.934;5.884;2022-10-04T17:38:20;13.80;;;6.90;;
56136;SDS011;42008;52.934;5.884;2022-10-04T17:40:58;13.10;;;6.37;;
56136;SDS011;42008;52.934;5.884;2022-10-04T17:47:00;13.33;;;7.57;;
56136;SDS011;42008;52.934;5.884;2022-10-04T17:49:42;13.20;;;6.40;;
56136;SDS011;42008;52.934;5.884;2022-10-04T17:52:48;11.93;;;6.93;;
56136;SDS011;42008;52.934;5.884;2022-10-04T18:01:06;14.10;;;7.17;;
56136;SDS011;42008;52.934;5.884;2022-10-04T18:03:37;14.80;;;7.67;;
56136;SDS011;42008;52.934;5.884;2022-10-04T18:06:16;21.23;;;8.83;;
56136;SDS011;42008;52.934;5.884;2022-10-04T18:08:54;16.27;;;7.80;;
56136;SDS011;42008;52.934;5.884;2022-10-04T18:16:57;16.30;;;8.53;;
56136;SDS011;42008;52.934;5.884;2022-10-04T18:19:39;16.10;;;9.00;;
56136;SDS011;42008;52.934;5.884;2022-10-04T18:22:16;17.23;;;8.00;;
56136;SDS011;42008;52.934;5.884;2022-10-04T18:24:43;13.83;;;8.23;;
56136;SDS011;42008;52.934;5.884;2022-10-04T18:29:42;18.63;;;7.90;;
56136;SDS011;42008;52.934;5.884;2022-10-04T18:34:53;16.33;;;8.77;;
56136;SDS011;42008;52.934;5.884;2022-10-04T18:40:01;19.37;;;9.37;;
56136;SDS011;42008;52.934;5.884;2022-10-04T18:42:41;24.90;;;8.73;;
56136;SDS011;42008;52.934;5.884;2022-10-04T18:48:05;16.77;;;9.67;;
56136;SDS011;42008;52.934;5.884;2022-10-04T18:50:39;15.57;;;8.23;;
56136;SDS011;42008;52.934;5.884;2022-10-04T18:56:14;15.33;;;8.20;;
56136;SDS011;42008;52.934;5.884;2022-10-04T19:12:38;18.07;;;9.57;;
56136;SDS011;42008;52.934;5.884;2022-10-04T19:15:41;17.37;;;9.00;;
56136;SDS011;42008;52.934;5.884;2022-10-04T19:18:42;17.17;;;9.53;;
56136;SDS011;42008;52.934;5.884;2022-10-04T19:27:08;15.97;;;9.93;;
56136;SDS011;42008;52.934;5.884;2022-10-04T19:29:50;19.77;;;9.10;;
56136;SDS011;42008;52.934;5.884;2022-10-04T19:32:35;14.63;;;8.93;;
56136;SDS011;42008;52.934;5.884;2022-10-04T19:35:23;18.20;;;9.90;;
56136;SDS011;42008;52.934;5.884;2022-10-04T19:38:16;17.37;;;9.60;;
56136;SDS011;42008;52.934;5.884;2022-10-04T19:41:04;16.07;;;9.43;;
56136;SDS011;42008;52.934;5.884;2022-10-04T19:46:39;16.03;;;9.97;;
56136;SDS011;42008;52.934;5.884;2022-10-04T19:49:12;14.73;;;9.77;;
56136;SDS011;42008;52.934;5.884;2022-10-04T19:52:09;17.70;;;9.47;;
56136;SDS011;42008;52.934;5.884;2022-10-04T19:54:46;16.60;;;10.40;;
56136;SDS011;42008;52.934;5.884;2022-10-04T19:57:15;19.87;;;10.30;;
56136;SDS011;42008;52.934;5.884;2022-10-04T20:02:14;17.63;;;10.50;;
56136;SDS011;42008;52.934;5.884;2022-10-04T20:04:40;20.07;;;10.37;;
56136;SDS011;42008;52.934;5.884;2022-10-04T20:09:49;18.83;;;10.30;;
56136;SDS011;42008;52.934;5.884;2022-10-04T20:12:35;16.67;;;10.17;;
56136;SDS011;42008;52.934;5.884;2022-10-04T20:15:12;14.93;;;10.47;;
56136;SDS011;42008;52.934;5.884;2022-10-04T20:17:41;18.03;;;10.57;;
56136;SDS011;42008;52.934;5.884;2022-10-04T20:20:08;15.80;;;9.93;;
56136;SDS011;42008;52.934;5.884;2022-10-04T20:28:10;21.00;;;10.33;;
56136;SDS011;42008;52.934;5.884;2022-10-04T20:31:00;16.00;;;10.17;;
56136;SDS011;42008;52.934;5.884;2022-10-04T20:50:04;17.83;;;10.80;;
56136;SDS011;42008;52.934;5.884;2022-10-04T20:52:41;16.17;;;10.50;;
56136;SDS011;42008;52.934;5.884;2022-10-04T20:57:57;16.57;;;10.40;;
56136;SDS011;42008;52.934;5.884;2022-10-04T21:00:25;14.90;;;10.50;;
56136;SDS011;42008;52.934;5.884;2022-10-04T21:03:11;16.50;;;10.87;;
56136;SDS011;42008;52.934;5.884;2022-10-04T21:05:39;15.63;;;10.33;;
56136;SDS011;42008;52.934;5.884;2022-10-04T21:08:38;15.53;;;10.30;;
56136;SDS011;42008;52.934;5.884;2022-10-04T21:16:31;17.03;;;10.03;;
56136;SDS011;42008;52.934;5.884;2022-10-04T21:22:01;15.83;;;9.20;;
56136;SDS011;42008;52.934;5.884;2022-10-04T21:24:35;17.60;;;10.40;;
56136;SDS011;42008;52.934;5.884;2022-10-04T21:27:32;18.33;;;10.57;;
56136;SDS011;42008;52.934;5.884;2022-10-04T21:30:06;16.83;;;10.00;;
56136;SDS011;42008;52.934;5.884;2022-10-04T21:32:38;15.27;;;10.10;;
56136;SDS011;42008;52.934;5.884;2022-10-04T21:35:04;14.53;;;9.47;;
56136;SDS011;42008;52.934;5.884;2022-10-04T21:37:30;14.13;;;9.67;;
56136;SDS011;42008;52.934;5.884;2022-10-04T21:39:56;17.70;;;10.37;;
56136;SDS011;42008;52.934;5.884;2022-10-04T21:42:22;15.13;;;9.67;;
56136;SDS011;42008;52.934;5.884;2022-10-04T21:44:48;15.40;;;9.30;;
56136;SDS011;42008;52.934;5.884;2022-10-04T21:47:14;13.93;;;9.47;;
56136;SDS011;42008;52.934;5.884;2022-10-04T21:49:39;16.33;;;10.10;;
56136;SDS011;42008;52.934;5.884;2022-10-04T21:52:05;16.03;;;9.80;;
56136;SDS011;42008;52.934;5.884;2022-10-04T21:54:31;13.83;;;9.80;;
56136;SDS011;42008;52.934;5.884;2022-10-04T21:56:57;17.47;;;10.70;;
56136;SDS011;42008;52.934;5.884;2022-10-04T21:59:23;13.23;;;9.43;;
56136;SDS011;42008;52.934;5.884;2022-10-04T22:01:48;15.40;;;9.70;;
56136;SDS011;42008;52.934;5.884;2022-10-04T22:04:14;13.67;;;9.17;;
56136;SDS011;42008;52.934;5.884;2022-10-04T22:06:40;13.40;;;10.10;;
56136;SDS011;42008;52.934;5.884;2022-10-04T22:09:06;18.20;;;10.77;;
56136;SDS011;42008;52.934;5.884;2022-10-04T22:11:32;15.70;;;10.70;;
56136;SDS011;42008;52.934;5.884;2022-10-04T22:13:58;17.17;;;10.27;;
56136;SDS011;42008;52.934;5.884;2022-10-04T22:16:24;14.27;;;9.43;;
56136;SDS011;42008;52.934;5.884;2022-10-04T22:18:49;12.63;;;10.17;;
56136;SDS011;42008;52.934;5.884;2022-10-04T22:21:15;12.87;;;9.47;;
56136;SDS011;42008;52.934;5.884;2022-10-04T22:23:41;18.63;;;9.90;;
56136;SDS011;42008;52.934;5.884;2022-10-04T22:26:14;16.27;;;9.90;;
56136;SDS011;42008;52.934;5.884;2022-10-04T22:28:45;17.60;;;10.27;;
56136;SDS011;42008;52.934;5.884;2022-10-04T22:31:14;17.40;;;9.07;;
56136;SDS011;42008;52.934;5.884;2022-10-04T22:33:50;13.27;;;10.03;;
56136;SDS011;42008;52.934;5.884;2022-10-04T22:36:20;13.50;;;8.73;;
56136;SDS011;42008;52.934;5.884;2022-10-04T22:41:25;12.63;;;9.13;;
56136;SDS011;42008;52.934;5.884;2022-10-04T22:44:01;14.93;;;9.50;;
56136;SDS011;42008;52.934;5.884;2022-10-04T22:46:37;15.73;;;9.37;;
56136;SDS011;42008;52.934;5.884;2022-10-04T22:49:12;14.77;;;9.43;;
56136;SDS011;42008;52.934;5.884;2022-10-04T22:51:40;15.53;;;9.07;;
56136;SDS011;42008;52.934;5.884;2022-10-04T22:54:26;16.03;;;10.13;;
56136;SDS011;42008;52.934;5.884;2022-10-04T22:56:55;13.20;;;9.37;;
56136;SDS011;42008;52.934;5.884;2022-10-04T22:59:32;14.10;;;8.60;;
56136;SDS011;42008;52.934;5.884;2022-10-04T23:02:00;12.70;;;8.87;;
56136;SDS011;42008;52.934;5.884;2022-10-04T23:04:31;15.57;;;8.82;;
56136;SDS011;42008;52.934;5.884;2022-10-04T23:06:57;12.00;;;8.57;;
56136;SDS011;42008;52.934;5.884;2022-10-04T23:09:22;12.50;;;8.13;;
56136;SDS011;42008;52.934;5.884;2022-10-04T23:11:48;10.37;;;8.03;;
56136;SDS011;42008;52.934;5.884;2022-10-04T23:14:13;11.40;;;7.70;;
56136;SDS011;42008;52.934;5.884;2022-10-04T23:16:39;9.20;;;7.10;;
56136;SDS011;42008;52.934;5.884;2022-10-04T23:19:09;11.93;;;7.07;;
56136;SDS011;42008;52.934;5.884;2022-10-04T23:21:37;12.93;;;7.70;;
56136;SDS011;42008;52.934;5.884;2022-10-04T23:24:22;11.47;;;6.67;;
56136;SDS011;42008;52.934;5.884;2022-10-04T23:26:48;12.17;;;6.80;;
56136;SDS011;42008;52.934;5.884;2022-10-04T23:31:49;10.00;;;6.43;;
56136;SDS011;42008;52.934;5.884;2022-10-04T23:34:23;10.43;;;6.47;;
56136;SDS011;42008;52.934;5.884;2022-10-04T23:36:53;10.80;;;6.40;;
56136;SDS011;42008;52.934;5.884;2022-10-04T23:39:23;12.13;;;6.87;;
56136;SDS011;42008;52.934;5.884;2022-10-04T23:41:52;10.43;;;5.50;;
56136;SDS011;42008;52.934;5.884;2022-10-04T23:44:19;8.43;;;5.60;;
56136;SDS011;42008;52.934;5.884;2022-10-04T23:46:51;8.38;;;5.53;;
56136;SDS011;42008;52.934;5.884;2022-10-04T23:49:16;8.57;;;5.20;;
56136;SDS011;42008;52.934;5.884;2022-10-04T23:51:44;9.20;;;5.83;;
56136;SDS011;42008;52.934;5.884;2022-10-04T23:54:12;9.03;;;5.47;;
56136;SDS011;42008;52.934;5.884;2022-10-04T23:56:39;10.60;;;5.57;;
56136;SDS011;42008;52.934;5.884;2022-10-04T23:59:07;11.00;;;5.50;;
